BKN31 KLAX-NZAA
Flight info
| Callsign | BKN31 |
|---|---|
| Flight time | N/A |
| Altitude | 30000 |
| Route | SUMMR2 FICKY B577 BELAN/N0508F320 B577 QUIGG/N0501F340 B577 TUT B575 DRAWN/N0492F360 B575 ELPAK |
| Aircraft | B77W/H-SDE1E2E3FGHIJ2J3J4J5M1RWXY/LB1D1 |
Departure
| Time | 2026-05-04 03:31 |
|---|---|
| Airport | Los Angeles International Airport (KLAX) |
Arrival
| Time | N/A |
|---|---|
| Airport | Auckland International Airport (NZAA) |
| Time | Latitude | Longitude | Altitude | Speed | Heading |
|---|---|---|---|---|---|
| 2026-05-04 01:59 | 33.94099 | -118.41086 | 139 ft | 0 kts | 83° |
| 2026-05-04 03:12 | 33.94097 | -118.41099 | 138 ft | 2 kts | 83° |
| 2026-05-04 03:12 | 33.94095 | -118.41118 | 138 ft | 2 kts | 83° |
| 2026-05-04 03:12 | 33.94093 | -118.41136 | 138 ft | 2 kts | 83° |
| 2026-05-04 03:13 | 33.94092 | -118.41155 | 137 ft | 2 kts | 97° |
| 2026-05-04 03:13 | 33.94096 | -118.41171 | 137 ft | 2 kts | 117° |
| 2026-05-04 03:13 | 33.94104 | -118.41187 | 136 ft | 2 kts | 135° |
| 2026-05-04 03:13 | 33.94116 | -118.41197 | 136 ft | 2 kts | 153° |
| 2026-05-04 03:14 | 33.94130 | -118.41203 | 136 ft | 2 kts | 171° |
| 2026-05-04 03:14 | 33.94139 | -118.41205 | 135 ft | 0 kts | 176° |
| 2026-05-04 03:19 | 33.94138 | -118.41205 | 135 ft | 0 kts | 175° |
| 2026-05-04 03:19 | 33.94119 | -118.41202 | 136 ft | 5 kts | 173° |
| 2026-05-04 03:19 | 33.94065 | -118.41194 | 136 ft | 10 kts | 174° |
| 2026-05-04 03:19 | 33.93975 | -118.41180 | 136 ft | 13 kts | 173° |
| 2026-05-04 03:20 | 33.93885 | -118.41169 | 139 ft | 12 kts | 173° |
| 2026-05-04 03:20 | 33.93816 | -118.41158 | 140 ft | 8 kts | 174° |
| 2026-05-04 03:20 | 33.93776 | -118.41142 | 140 ft | 0 kts | 132° |
| 2026-05-04 03:21 | 33.93770 | -118.41132 | 140 ft | 3 kts | 118° |
| 2026-05-04 03:21 | 33.93769 | -118.41074 | 141 ft | 10 kts | 83° |
| 2026-05-04 03:21 | 33.93778 | -118.40986 | 141 ft | 11 kts | 83° |
| 2026-05-04 03:22 | 33.93789 | -118.40888 | 142 ft | 12 kts | 82° |
| 2026-05-04 03:22 | 33.93799 | -118.40776 | 142 ft | 15 kts | 84° |
| 2026-05-04 03:22 | 33.93814 | -118.40633 | 140 ft | 19 kts | 83° |
| 2026-05-04 03:22 | 33.93832 | -118.40453 | 137 ft | 22 kts | 83° |
| 2026-05-04 03:23 | 33.93851 | -118.40272 | 132 ft | 21 kts | 82° |
| 2026-05-04 03:23 | 33.93869 | -118.40101 | 129 ft | 20 kts | 83° |
| 2026-05-04 03:23 | 33.93884 | -118.39938 | 127 ft | 18 kts | 83° |
| 2026-05-04 03:23 | 33.93899 | -118.39795 | 126 ft | 16 kts | 83° |
| 2026-05-04 03:24 | 33.93912 | -118.39667 | 123 ft | 15 kts | 83° |
| 2026-05-04 03:24 | 33.93926 | -118.39541 | 121 ft | 14 kts | 83° |
| 2026-05-04 03:24 | 33.93939 | -118.39410 | 119 ft | 17 kts | 84° |
| 2026-05-04 03:24 | 33.93956 | -118.39245 | 117 ft | 22 kts | 83° |
| 2026-05-04 03:25 | 33.93974 | -118.39062 | 116 ft | 20 kts | 84° |
| 2026-05-04 03:25 | 33.93991 | -118.38902 | 115 ft | 18 kts | 83° |
| 2026-05-04 03:25 | 33.94005 | -118.38761 | 114 ft | 15 kts | 82° |
| 2026-05-04 03:25 | 33.94018 | -118.38638 | 113 ft | 13 kts | 84° |
| 2026-05-04 03:26 | 33.94029 | -118.38532 | 112 ft | 11 kts | 82° |
| 2026-05-04 03:26 | 33.94033 | -118.38492 | 112 ft | 0 kts | 83° |
| 2026-05-04 03:26 | 33.94033 | -118.38487 | 112 ft | 2 kts | 83° |
| 2026-05-04 03:26 | 33.94036 | -118.38455 | 112 ft | 5 kts | 83° |
| 2026-05-04 03:27 | 33.94042 | -118.38397 | 112 ft | 8 kts | 84° |
| 2026-05-04 03:27 | 33.94049 | -118.38316 | 111 ft | 11 kts | 83° |
| 2026-05-04 03:27 | 33.94060 | -118.38230 | 111 ft | 6 kts | 81° |
| 2026-05-04 03:27 | 33.94065 | -118.38182 | 110 ft | 0 kts | 82° |
| 2026-05-04 03:28 | 33.94069 | -118.38146 | 110 ft | 7 kts | 84° |
| 2026-05-04 03:28 | 33.94075 | -118.38091 | 110 ft | 6 kts | 84° |
| 2026-05-04 03:28 | 33.94075 | -118.38036 | 109 ft | 7 kts | 108° |
| 2026-05-04 03:29 | 33.94027 | -118.37995 | 109 ft | 10 kts | 178° |
| 2026-05-04 03:29 | 33.93980 | -118.38049 | 109 ft | 10 kts | 258° |
| 2026-05-04 03:29 | 33.93977 | -118.38066 | 109 ft | 0 kts | 263° |
| 2026-05-04 03:30 | 33.93975 | -118.38089 | 109 ft | 14 kts | 264° |
| 2026-05-04 03:30 | 33.93936 | -118.38473 | 112 ft | 77 kts | 264° |
| 2026-05-04 03:30 | 33.93847 | -118.39357 | 119 ft | 135 kts | 263° |
| 2026-05-04 03:31 | 33.93710 | -118.40691 | 159 ft | 181 kts | 263° |
| 2026-05-04 03:31 | 33.93547 | -118.42240 | 654 ft | 190 kts | 262° |
| 2026-05-04 03:31 | 33.93378 | -118.43855 | 1326 ft | 196 kts | 263° |
| 2026-05-04 03:31 | 33.93219 | -118.45473 | 1681 ft | 205 kts | 263° |
| 2026-05-04 03:32 | 33.93053 | -118.47259 | 1916 ft | 220 kts | 264° |
| 2026-05-04 03:32 | 33.92905 | -118.49142 | 2206 ft | 234 kts | 264° |
| 2026-05-04 03:32 | 33.92749 | -118.51080 | 2876 ft | 231 kts | 264° |
| 2026-05-04 03:32 | 33.92592 | -118.52991 | 3434 ft | 233 kts | 265° |
| 2026-05-04 03:33 | 33.92432 | -118.54930 | 3958 ft | 235 kts | 264° |
| 2026-05-04 03:33 | 33.92269 | -118.56908 | 4475 ft | 238 kts | 264° |
| 2026-05-04 03:33 | 33.92105 | -118.58890 | 4968 ft | 241 kts | 264° |
| 2026-05-04 03:33 | 33.91935 | -118.60927 | 5465 ft | 244 kts | 264° |
| 2026-05-04 03:34 | 33.91784 | -118.62976 | 5895 ft | 250 kts | 268° |
| 2026-05-04 03:34 | 33.91764 | -118.65044 | 6394 ft | 253 kts | 269° |
| 2026-05-04 03:34 | 33.91760 | -118.67239 | 6538 ft | 272 kts | 269° |
| 2026-05-04 03:34 | 33.91754 | -118.69588 | 6823 ft | 284 kts | 269° |
| 2026-05-04 03:35 | 33.91746 | -118.71959 | 7450 ft | 285 kts | 269° |
| 2026-05-04 03:35 | 33.91737 | -118.74324 | 8082 ft | 285 kts | 268° |
| 2026-05-04 03:35 | 33.91726 | -118.76698 | 8662 ft | 286 kts | 269° |
| 2026-05-04 03:35 | 33.91716 | -118.79111 | 9211 ft | 289 kts | 268° |
| 2026-05-04 03:36 | 33.91705 | -118.81516 | 9771 ft | 291 kts | 268° |
| 2026-05-04 03:36 | 33.91696 | -118.83948 | 10345 ft | 292 kts | 269° |
| 2026-05-04 03:36 | 33.91764 | -118.86395 | 10877 ft | 295 kts | 270° |
| 2026-05-04 03:36 | 33.91854 | -118.88883 | 11138 ft | 308 kts | 270° |
| 2026-05-04 03:37 | 33.91939 | -118.91528 | 11193 ft | 327 kts | 269° |
| 2026-05-04 03:37 | 33.92023 | -118.94334 | 11302 ft | 346 kts | 270° |
| 2026-05-04 03:37 | 33.92110 | -118.97324 | 11462 ft | 363 kts | 270° |
| 2026-05-04 03:37 | 33.92027 | -119.00404 | 11769 ft | 373 kts | 261° |
| 2026-05-04 03:38 | 33.91465 | -119.03421 | 12396 ft | 373 kts | 250° |
| 2026-05-04 03:38 | 33.90515 | -119.06310 | 13152 ft | 372 kts | 246° |
| 2026-05-04 03:38 | 33.89498 | -119.09159 | 13869 ft | 371 kts | 246° |
| 2026-05-04 03:38 | 33.88477 | -119.11993 | 14549 ft | 371 kts | 245° |
| 2026-05-04 03:39 | 33.87449 | -119.14832 | 15289 ft | 370 kts | 246° |
| 2026-05-04 03:39 | 33.86430 | -119.17640 | 16069 ft | 366 kts | 246° |
| 2026-05-04 03:39 | 33.85409 | -119.20448 | 16740 ft | 366 kts | 246° |
| 2026-05-04 03:39 | 33.84397 | -119.23228 | 17352 ft | 365 kts | 245° |
| 2026-05-04 03:40 | 33.83376 | -119.26025 | 18007 ft | 363 kts | 246° |
| 2026-05-04 03:40 | 33.82365 | -119.28796 | 18638 ft | 363 kts | 246° |
| 2026-05-04 03:40 | 33.81321 | -119.31532 | 19138 ft | 364 kts | 243° |
| 2026-05-04 03:40 | 33.79959 | -119.34148 | 19648 ft | 368 kts | 236° |
| 2026-05-04 03:41 | 33.78285 | -119.36472 | 20132 ft | 372 kts | 227° |
| 2026-05-04 03:41 | 33.76305 | -119.38516 | 20650 ft | 375 kts | 221° |
| 2026-05-04 03:41 | 33.74234 | -119.40453 | 21088 ft | 378 kts | 223° |
| 2026-05-04 03:41 | 33.72163 | -119.42387 | 21516 ft | 380 kts | 221° |
| 2026-05-04 03:42 | 33.70070 | -119.44342 | 22005 ft | 381 kts | 223° |
| 2026-05-04 03:42 | 33.67961 | -119.46313 | 22435 ft | 383 kts | 223° |
| 2026-05-04 03:42 | 33.65858 | -119.48280 | 22830 ft | 385 kts | 223° |
| 2026-05-04 03:42 | 33.63765 | -119.50237 | 23268 ft | 386 kts | 223° |
| 2026-05-04 03:43 | 33.61620 | -119.52243 | 23718 ft | 386 kts | 223° |
| 2026-05-04 03:43 | 33.59496 | -119.54227 | 24141 ft | 387 kts | 223° |
| 2026-05-04 03:43 | 33.57393 | -119.56192 | 24585 ft | 387 kts | 223° |
| 2026-05-04 03:43 | 33.55253 | -119.58189 | 24970 ft | 388 kts | 224° |
| 2026-05-04 03:44 | 33.53112 | -119.60188 | 25285 ft | 391 kts | 224° |
| 2026-05-04 03:44 | 33.50950 | -119.62205 | 25610 ft | 393 kts | 223° |
| 2026-05-04 03:44 | 33.48815 | -119.64193 | 26011 ft | 394 kts | 224° |
| 2026-05-04 03:44 | 33.46617 | -119.66241 | 26434 ft | 394 kts | 224° |
| 2026-05-04 03:45 | 33.44470 | -119.68239 | 26837 ft | 395 kts | 224° |
| 2026-05-04 03:45 | 33.42300 | -119.70257 | 27215 ft | 396 kts | 224° |
| 2026-05-04 03:45 | 33.40111 | -119.72293 | 27542 ft | 399 kts | 223° |
| 2026-05-04 03:45 | 33.37899 | -119.74348 | 27869 ft | 401 kts | 224° |
| 2026-05-04 03:46 | 33.35717 | -119.76374 | 28199 ft | 402 kts | 224° |
| 2026-05-04 03:46 | 33.33509 | -119.78423 | 28557 ft | 403 kts | 224° |
| 2026-05-04 03:46 | 33.31272 | -119.80496 | 28931 ft | 403 kts | 224° |
| 2026-05-04 03:46 | 33.29073 | -119.82533 | 29245 ft | 404 kts | 225° |
| 2026-05-04 03:47 | 33.26837 | -119.84604 | 29594 ft | 405 kts | 224° |
| 2026-05-04 03:47 | 33.24624 | -119.86651 | 29963 ft | 403 kts | 224° |
| 2026-05-04 03:47 | 33.22389 | -119.88716 | 29994 ft | 400 kts | 225° |
| 2026-05-04 03:48 | 33.18046 | -119.92725 | 30007 ft | 395 kts | 225° |
| 2026-05-04 03:48 | 33.13655 | -119.96781 | 30004 ft | 403 kts | 225° |
| 2026-05-04 03:49 | 33.09168 | -120.00919 | 29997 ft | 412 kts | 224° |
| 2026-05-04 03:49 | 33.04620 | -120.05102 | 30002 ft | 413 kts | 225° |
| 2026-05-04 03:50 | 33.00079 | -120.09274 | 30006 ft | 412 kts | 225° |
| 2026-05-04 03:50 | 32.95556 | -120.13422 | 30000 ft | 410 kts | 225° |
| 2026-05-04 03:51 | 32.91042 | -120.17559 | 29985 ft | 410 kts | 225° |
| 2026-05-04 03:51 | 32.86466 | -120.21750 | 30001 ft | 414 kts | 224° |
| 2026-05-04 03:52 | 32.81881 | -120.25940 | 30012 ft | 415 kts | 225° |
| 2026-05-04 03:52 | 32.77304 | -120.30117 | 30002 ft | 412 kts | 224° |
| 2026-05-04 03:53 | 32.72755 | -120.34265 | 30000 ft | 414 kts | 224° |
| 2026-05-04 03:53 | 32.68204 | -120.38408 | 30000 ft | 414 kts | 225° |
| 2026-05-04 03:54 | 32.63620 | -120.42575 | 30001 ft | 414 kts | 224° |
| 2026-05-04 03:54 | 32.59082 | -120.46695 | 30003 ft | 412 kts | 224° |
| 2026-05-04 03:55 | 32.54515 | -120.50841 | 30007 ft | 413 kts | 224° |
| 2026-05-04 03:55 | 32.49958 | -120.54972 | 30004 ft | 413 kts | 224° |
| 2026-05-04 03:56 | 32.45389 | -120.59109 | 30000 ft | 413 kts | 225° |
| 2026-05-04 03:56 | 32.40832 | -120.63230 | 30007 ft | 413 kts | 224° |
| 2026-05-04 03:57 | 32.36262 | -120.67356 | 30028 ft | 412 kts | 223° |
| 2026-05-04 03:57 | 32.31708 | -120.71463 | 30032 ft | 414 kts | 223° |
| 2026-05-04 03:58 | 32.24894 | -120.77597 | 30034 ft | 409 kts | 224° |
| 2026-05-04 03:58 | 32.20314 | -120.81716 | 30031 ft | 413 kts | 223° |
| 2026-05-04 03:59 | 32.15736 | -120.85825 | 30018 ft | 413 kts | 223° |
| 2026-05-04 03:59 | 32.11205 | -120.89887 | 30021 ft | 411 kts | 222° |
| 2026-05-04 04:00 | 32.06633 | -120.93982 | 30024 ft | 414 kts | 223° |
| 2026-05-04 04:00 | 32.02040 | -120.98089 | 30033 ft | 413 kts | 223° |
| 2026-05-04 04:01 | 31.97460 | -121.02179 | 30026 ft | 413 kts | 223° |
| 2026-05-04 04:01 | 31.92875 | -121.06268 | 30016 ft | 411 kts | 223° |
| 2026-05-04 04:02 | 31.88333 | -121.10315 | 30032 ft | 414 kts | 222° |
| 2026-05-04 04:02 | 31.83742 | -121.14401 | 30023 ft | 413 kts | 222° |
| 2026-05-04 04:03 | 31.79203 | -121.18432 | 30032 ft | 410 kts | 222° |
| 2026-05-04 04:03 | 31.74635 | -121.22487 | 30025 ft | 411 kts | 223° |
| 2026-05-04 04:04 | 31.70069 | -121.26534 | 30023 ft | 412 kts | 222° |
| 2026-05-04 04:04 | 31.65507 | -121.30572 | 30033 ft | 410 kts | 223° |